VOZ542 YBCG-YSSY
Flight info
| Callsign | VOZ542 |
|---|---|
| Flight time | 1h 11m |
| Altitude | 30000 |
| Route | GOMOL Q16 APAGI H91 IGDAM H652 BOREE |
| Aircraft | B738/M-SDE2E3FGHIRWXY/LB1 |
Departure
| Time | 2026-05-04 08:31 |
|---|---|
| Airport | Gold Coast Airport (YBCG) |
Arrival
| Time | 2026-05-04 09:42 |
|---|---|
| Airport | Sydney Kingsford Smith International Airport (YSSY) |
| Time | Latitude | Longitude | Altitude | Speed | Heading |
|---|---|---|---|---|---|
| 2026-05-04 08:08 | -28.16778 | 153.51244 | 25 ft | 0 kts | 60° |
| 2026-05-04 08:20 | -28.16780 | 153.51241 | 25 ft | 2 kts | 60° |
| 2026-05-04 08:20 | -28.16789 | 153.51224 | 30 ft | 3 kts | 57° |
| 2026-05-04 08:20 | -28.16800 | 153.51205 | 27 ft | 3 kts | 53° |
| 2026-05-04 08:21 | -28.16813 | 153.51187 | 30 ft | 3 kts | 48° |
| 2026-05-04 08:21 | -28.16827 | 153.51171 | 30 ft | 3 kts | 37° |
| 2026-05-04 08:21 | -28.16844 | 153.51159 | 30 ft | 3 kts | 12° |
| 2026-05-04 08:21 | -28.16858 | 153.51160 | 30 ft | 2 kts | 331° |
| 2026-05-04 08:22 | -28.16874 | 153.51169 | 29 ft | 3 kts | 331° |
| 2026-05-04 08:22 | -28.16891 | 153.51181 | 26 ft | 3 kts | 330° |
| 2026-05-04 08:24 | -28.16902 | 153.51187 | 25 ft | 0 kts | 330° |
| 2026-05-04 08:24 | -28.16901 | 153.51187 | 25 ft | 0 kts | 330° |
| 2026-05-04 08:24 | -28.16867 | 153.51165 | 26 ft | 12 kts | 330° |
| 2026-05-04 08:25 | -28.16764 | 153.51100 | 28 ft | 19 kts | 330° |
| 2026-05-04 08:25 | -28.16638 | 153.51020 | 26 ft | 21 kts | 331° |
| 2026-05-04 08:25 | -28.16529 | 153.50951 | 26 ft | 10 kts | 331° |
| 2026-05-04 08:25 | -28.16489 | 153.50901 | 25 ft | 9 kts | 283° |
| 2026-05-04 08:26 | -28.16487 | 153.50834 | 25 ft | 9 kts | 292° |
| 2026-05-04 08:27 | -28.15907 | 153.50448 | 28 ft | 20 kts | 330° |
| 2026-05-04 08:28 | -28.15790 | 153.50374 | 28 ft | 17 kts | 330° |
| 2026-05-04 08:28 | -28.15694 | 153.50313 | 27 ft | 14 kts | 330° |
| 2026-05-04 08:28 | -28.15623 | 153.50259 | 29 ft | 12 kts | 312° |
| 2026-05-04 08:28 | -28.15612 | 153.50182 | 27 ft | 8 kts | 248° |
| 2026-05-04 08:29 | -28.15636 | 153.50127 | 28 ft | 7 kts | 241° |
| 2026-05-04 08:29 | -28.15653 | 153.50099 | 27 ft | 4 kts | 225° |
| 2026-05-04 08:29 | -28.15682 | 153.50092 | 28 ft | 5 kts | 166° |
| 2026-05-04 08:31 | -28.20339 | 153.53013 | 2741 ft | 203 kts | 151° |
| 2026-05-04 08:33 | -28.27891 | 153.50803 | 7251 ft | 262 kts | 263° |
| 2026-05-04 08:33 | -28.28137 | 153.48707 | 7921 ft | 269 kts | 263° |
| 2026-05-04 08:35 | -28.35850 | 153.35311 | 12054 ft | 349 kts | 232° |
| 2026-05-04 08:35 | -28.37377 | 153.33152 | 12806 ft | 352 kts | 233° |
| 2026-05-04 08:35 | -28.38870 | 153.30959 | 13775 ft | 345 kts | 235° |
| 2026-05-04 08:35 | -28.40283 | 153.28830 | 14981 ft | 331 kts | 236° |
| 2026-05-04 08:37 | -28.48400 | 153.16190 | 19418 ft | 337 kts | 238° |
| 2026-05-04 08:37 | -28.49780 | 153.14023 | 20052 ft | 339 kts | 239° |
| 2026-05-04 08:37 | -28.51167 | 153.11844 | 20664 ft | 342 kts | 239° |
| 2026-05-04 08:38 | -28.52564 | 153.09648 | 21278 ft | 344 kts | 239° |
| 2026-05-04 08:38 | -28.53970 | 153.07437 | 21906 ft | 346 kts | 239° |
| 2026-05-04 08:38 | -28.55381 | 153.05217 | 22534 ft | 348 kts | 239° |
| 2026-05-04 08:40 | -28.65441 | 152.89355 | 26323 ft | 357 kts | 240° |
| 2026-05-04 08:40 | -28.66898 | 152.87052 | 26783 ft | 359 kts | 241° |
| 2026-05-04 08:40 | -28.68359 | 152.84741 | 27278 ft | 360 kts | 241° |
| 2026-05-04 08:41 | -28.69823 | 152.82427 | 27775 ft | 361 kts | 241° |
| 2026-05-04 08:41 | -28.71291 | 152.80103 | 28254 ft | 362 kts | 241° |
| 2026-05-04 08:41 | -28.72766 | 152.77767 | 28693 ft | 364 kts | 241° |
| 2026-05-04 08:41 | -28.74243 | 152.75426 | 29173 ft | 364 kts | 242° |
| 2026-05-04 08:42 | -28.75705 | 152.73109 | 29668 ft | 365 kts | 242° |
| 2026-05-04 08:42 | -28.77191 | 152.70752 | 30087 ft | 367 kts | 242° |
| 2026-05-04 08:42 | -28.78696 | 152.68357 | 30099 ft | 377 kts | 242° |
| 2026-05-04 08:43 | -28.81814 | 152.63397 | 30134 ft | 393 kts | 242° |
| 2026-05-04 08:43 | -28.85349 | 152.58442 | 30129 ft | 421 kts | 227° |
| 2026-05-04 08:43 | -28.87844 | 152.56562 | 30133 ft | 436 kts | 217° |
| 2026-05-04 08:44 | -28.90530 | 152.54940 | 30131 ft | 438 kts | 216° |
| 2026-05-04 08:46 | -29.12469 | 152.42098 | 30148 ft | 457 kts | 216° |
| 2026-05-04 08:46 | -29.18140 | 152.38712 | 30140 ft | 460 kts | 216° |
| 2026-05-04 08:47 | -29.23825 | 152.35319 | 30136 ft | 461 kts | 216° |
| 2026-05-04 08:47 | -29.29503 | 152.31926 | 30133 ft | 460 kts | 216° |
| 2026-05-04 08:48 | -29.35176 | 152.28526 | 30150 ft | 460 kts | 216° |
| 2026-05-04 08:48 | -29.40842 | 152.25126 | 30150 ft | 460 kts | 216° |
| 2026-05-04 08:49 | -29.46503 | 152.21727 | 30149 ft | 458 kts | 216° |
| 2026-05-04 08:50 | -29.66212 | 152.09850 | 30156 ft | 457 kts | 216° |
| 2026-05-04 08:51 | -29.72092 | 152.06861 | 30136 ft | 474 kts | 204° |
| 2026-05-04 08:51 | -29.78574 | 152.05159 | 30147 ft | 479 kts | 200° |
| 2026-05-04 08:52 | -29.85096 | 152.03555 | 30151 ft | 479 kts | 201° |
| 2026-05-04 08:52 | -29.91604 | 152.01894 | 30135 ft | 479 kts | 201° |
| 2026-05-04 08:54 | -30.16489 | 151.95363 | 30153 ft | 479 kts | 201° |
| 2026-05-04 08:55 | -30.24048 | 151.93375 | 30160 ft | 479 kts | 202° |
| 2026-05-04 08:55 | -30.29498 | 151.91940 | 30154 ft | 479 kts | 202° |
| 2026-05-04 08:57 | -30.50833 | 151.82577 | 30139 ft | 468 kts | 211° |
| 2026-05-04 09:01 | -30.93277 | 151.62668 | 30127 ft | 472 kts | 211° |
| 2026-05-04 09:01 | -30.99371 | 151.59794 | 30127 ft | 473 kts | 212° |
| 2026-05-04 09:02 | -31.05471 | 151.56914 | 30128 ft | 473 kts | 212° |
| 2026-05-04 09:02 | -31.11572 | 151.54030 | 30129 ft | 473 kts | 212° |
| 2026-05-04 09:03 | -31.17680 | 151.51137 | 30127 ft | 474 kts | 212° |
| 2026-05-04 09:03 | -31.23791 | 151.48240 | 30123 ft | 474 kts | 212° |
| 2026-05-04 09:04 | -31.29902 | 151.45338 | 30126 ft | 474 kts | 212° |
| 2026-05-04 09:04 | -31.36007 | 151.42436 | 30119 ft | 474 kts | 212° |
| 2026-05-04 09:05 | -31.42130 | 151.39573 | 30113 ft | 475 kts | 211° |
| 2026-05-04 09:05 | -31.48316 | 151.36834 | 30129 ft | 475 kts | 210° |
| 2026-05-04 09:06 | -31.54450 | 151.34131 | 30113 ft | 474 kts | 211° |
| 2026-05-04 09:08 | -31.79031 | 151.23129 | 30101 ft | 471 kts | 211° |
| 2026-05-04 09:08 | -31.85145 | 151.20379 | 30114 ft | 470 kts | 211° |
| 2026-05-04 09:09 | -31.91259 | 151.17627 | 30103 ft | 470 kts | 211° |
| 2026-05-04 09:09 | -31.97372 | 151.14876 | 30093 ft | 470 kts | 211° |
| 2026-05-04 09:10 | -32.03489 | 151.12135 | 30082 ft | 468 kts | 211° |
| 2026-05-04 09:10 | -32.06480 | 151.10806 | 30064 ft | 451 kts | 211° |
| 2026-05-04 09:10 | -32.09355 | 151.09533 | 30065 ft | 433 kts | 211° |
| 2026-05-04 09:10 | -32.12122 | 151.08303 | 30067 ft | 418 kts | 212° |
| 2026-05-04 09:11 | -32.14793 | 151.07107 | 30050 ft | 405 kts | 212° |
| 2026-05-04 09:11 | -32.17412 | 151.05923 | 29737 ft | 400 kts | 213° |
| 2026-05-04 09:11 | -32.19989 | 151.04754 | 29396 ft | 395 kts | 212° |
| 2026-05-04 09:11 | -32.22539 | 151.03595 | 29028 ft | 391 kts | 212° |
| 2026-05-04 09:12 | -32.25069 | 151.02447 | 28622 ft | 388 kts | 212° |
| 2026-05-04 09:12 | -32.27580 | 151.01309 | 28231 ft | 385 kts | 211° |
| 2026-05-04 09:14 | -32.44747 | 150.93539 | 25577 ft | 372 kts | 210° |
| 2026-05-04 09:14 | -32.47164 | 150.92456 | 25211 ft | 372 kts | 207° |
| 2026-05-04 09:14 | -32.49718 | 150.91747 | 24830 ft | 382 kts | 195° |
| 2026-05-04 09:14 | -32.52380 | 150.91607 | 24656 ft | 383 kts | 183° |
| 2026-05-04 09:15 | -32.55043 | 150.91963 | 24326 ft | 387 kts | 178° |
| 2026-05-04 09:15 | -32.57705 | 150.92465 | 24000 ft | 388 kts | 176° |
| 2026-05-04 09:15 | -32.60379 | 150.92999 | 23607 ft | 392 kts | 176° |
| 2026-05-04 09:15 | -32.63089 | 150.93529 | 23177 ft | 397 kts | 176° |
| 2026-05-04 09:17 | -32.84493 | 150.97415 | 20148 ft | 379 kts | 176° |
| 2026-05-04 09:18 | -32.87098 | 150.97876 | 19774 ft | 378 kts | 176° |
| 2026-05-04 09:18 | -32.89694 | 150.98335 | 19405 ft | 376 kts | 176° |
| 2026-05-04 09:18 | -32.92278 | 150.98793 | 19023 ft | 376 kts | 176° |
| 2026-05-04 09:18 | -32.94832 | 150.99247 | 18640 ft | 375 kts | 175° |
| 2026-05-04 09:19 | -32.97409 | 150.99705 | 18239 ft | 375 kts | 175° |
| 2026-05-04 09:19 | -32.99982 | 151.00163 | 17834 ft | 373 kts | 175° |
| 2026-05-04 09:19 | -33.02542 | 151.00619 | 17424 ft | 371 kts | 175° |
| 2026-05-04 09:19 | -33.05094 | 151.01075 | 17050 ft | 369 kts | 175° |
| 2026-05-04 09:20 | -33.07625 | 151.01526 | 16671 ft | 367 kts | 175° |
| 2026-05-04 09:20 | -33.10149 | 151.01977 | 16293 ft | 365 kts | 175° |
| 2026-05-04 09:20 | -33.12656 | 151.02425 | 15927 ft | 363 kts | 175° |
| 2026-05-04 09:20 | -33.15150 | 151.02870 | 15556 ft | 362 kts | 175° |
| 2026-05-04 09:21 | -33.17633 | 151.03314 | 15184 ft | 360 kts | 175° |
| 2026-05-04 09:21 | -33.20105 | 151.03756 | 14825 ft | 359 kts | 175° |
| 2026-05-04 09:21 | -33.22566 | 151.04196 | 14429 ft | 358 kts | 175° |
| 2026-05-04 09:21 | -33.25025 | 151.04644 | 14089 ft | 356 kts | 174° |
| 2026-05-04 09:22 | -33.27472 | 151.05111 | 13707 ft | 355 kts | 174° |
| 2026-05-04 09:22 | -33.29901 | 151.05580 | 13323 ft | 353 kts | 174° |
| 2026-05-04 09:22 | -33.32319 | 151.06046 | 12931 ft | 351 kts | 174° |
| 2026-05-04 09:22 | -33.34729 | 151.06508 | 12561 ft | 349 kts | 174° |
| 2026-05-04 09:23 | -33.37120 | 151.06966 | 12199 ft | 348 kts | 174° |
| 2026-05-04 09:23 | -33.39502 | 151.07423 | 11838 ft | 346 kts | 174° |
| 2026-05-04 09:23 | -33.41874 | 151.07878 | 11483 ft | 344 kts | 174° |
| 2026-05-04 09:23 | -33.44239 | 151.08332 | 11118 ft | 343 kts | 174° |
| 2026-05-04 09:25 | -33.60097 | 151.11385 | 9191 ft | 318 kts | 174° |
| 2026-05-04 09:25 | -33.62274 | 151.11806 | 8933 ft | 314 kts | 174° |
| 2026-05-04 09:26 | -33.64410 | 151.12228 | 8753 ft | 308 kts | 174° |
| 2026-05-04 09:26 | -33.66490 | 151.12641 | 8578 ft | 302 kts | 174° |
| 2026-05-04 09:26 | -33.68557 | 151.13052 | 8418 ft | 298 kts | 172° |
| 2026-05-04 09:26 | -33.70473 | 151.13911 | 8251 ft | 301 kts | 147° |
| 2026-05-04 09:27 | -33.72043 | 151.15554 | 8131 ft | 299 kts | 133° |
| 2026-05-04 09:27 | -33.73502 | 151.17385 | 7972 ft | 300 kts | 132° |
| 2026-05-04 09:27 | -33.74930 | 151.19210 | 7832 ft | 300 kts | 133° |
| 2026-05-04 09:27 | -33.76349 | 151.21008 | 7669 ft | 302 kts | 133° |
| 2026-05-04 09:28 | -33.77805 | 151.22835 | 7509 ft | 303 kts | 133° |
| 2026-05-04 09:28 | -33.79268 | 151.24659 | 7366 ft | 302 kts | 133° |
| 2026-05-04 09:28 | -33.80728 | 151.26475 | 7198 ft | 303 kts | 133° |
| 2026-05-04 09:28 | -33.82225 | 151.28253 | 7036 ft | 303 kts | 142° |
| 2026-05-04 09:29 | -33.84086 | 151.29380 | 6872 ft | 298 kts | 167° |
| 2026-05-04 09:29 | -33.86084 | 151.29928 | 6744 ft | 292 kts | 171° |
| 2026-05-04 09:29 | -33.88073 | 151.30411 | 6587 ft | 292 kts | 171° |
| 2026-05-04 09:29 | -33.90060 | 151.30901 | 6434 ft | 291 kts | 171° |
| 2026-05-04 09:30 | -33.92043 | 151.31406 | 6281 ft | 291 kts | 170° |
| 2026-05-04 09:30 | -33.94028 | 151.31920 | 6131 ft | 292 kts | 170° |
| 2026-05-04 09:30 | -33.96013 | 151.32438 | 6035 ft | 292 kts | 170° |
| 2026-05-04 09:30 | -33.97985 | 151.32954 | 5995 ft | 287 kts | 170° |
| 2026-05-04 09:31 | -33.99895 | 151.33455 | 5982 ft | 275 kts | 170° |
| 2026-05-04 09:31 | -34.01723 | 151.33935 | 5974 ft | 263 kts | 170° |
| 2026-05-04 09:31 | -34.03470 | 151.34394 | 5974 ft | 251 kts | 170° |
| 2026-05-04 09:31 | -34.05153 | 151.34835 | 5990 ft | 246 kts | 170° |
| 2026-05-04 09:32 | -34.06840 | 151.35275 | 5769 ft | 255 kts | 170° |
| 2026-05-04 09:32 | -34.08625 | 151.35739 | 5141 ft | 273 kts | 169° |
| 2026-05-04 09:34 | -34.21962 | 151.36059 | 3528 ft | 278 kts | 190° |
| 2026-05-04 09:34 | -34.23787 | 151.35467 | 3471 ft | 266 kts | 215° |
| 2026-05-04 09:34 | -34.24980 | 151.33959 | 3468 ft | 237 kts | 252° |
| 2026-05-04 09:34 | -34.25131 | 151.32158 | 3476 ft | 203 kts | 291° |
| 2026-05-04 09:35 | -34.24518 | 151.30702 | 3478 ft | 191 kts | 310° |
| 2026-05-04 09:35 | -34.23552 | 151.29638 | 3438 ft | 189 kts | 323° |
| 2026-05-04 09:35 | -34.22530 | 151.28651 | 3333 ft | 191 kts | 322° |
| 2026-05-04 09:35 | -34.21494 | 151.27641 | 3215 ft | 192 kts | 323° |
| 2026-05-04 09:37 | -34.13086 | 151.23556 | 2381 ft | 188 kts | 347° |
| 2026-05-04 09:37 | -34.11810 | 151.23223 | 2266 ft | 188 kts | 348° |
| 2026-05-04 09:38 | -34.10529 | 151.22889 | 2136 ft | 188 kts | 348° |
| 2026-05-04 09:38 | -34.09226 | 151.22549 | 2042 ft | 191 kts | 349° |
| 2026-05-04 09:38 | -34.07985 | 151.22225 | 1996 ft | 173 kts | 348° |
| 2026-05-04 09:38 | -34.06825 | 151.21923 | 1922 ft | 170 kts | 349° |
| 2026-05-04 09:39 | -34.05705 | 151.21631 | 1735 ft | 159 kts | 349° |
| 2026-05-04 09:39 | -34.04654 | 151.21357 | 1519 ft | 150 kts | 350° |
| 2026-05-04 09:39 | -34.03668 | 151.21100 | 1350 ft | 139 kts | 350° |
| 2026-05-04 09:39 | -34.02760 | 151.20863 | 1196 ft | 128 kts | 349° |
| 2026-05-04 09:40 | -34.01907 | 151.20640 | 996 ft | 123 kts | 350° |
| 2026-05-04 09:40 | -34.01093 | 151.20429 | 836 ft | 118 kts | 350° |
| 2026-05-04 09:40 | -34.00293 | 151.20220 | 701 ft | 119 kts | 349° |
| 2026-05-04 09:40 | -33.99459 | 151.19984 | 539 ft | 123 kts | 349° |
| 2026-05-04 09:41 | -33.98634 | 151.19774 | 330 ft | 124 kts | 352° |
| 2026-05-04 09:42 | -33.95310 | 151.18860 | 25 ft | 19 kts | 327° |
| 2026-05-04 09:43 | -33.95215 | 151.18767 | 28 ft | 14 kts | 318° |
| 2026-05-04 09:43 | -33.95173 | 151.18721 | 28 ft | 11 kts | 318° |
| 2026-05-04 09:43 | -33.95118 | 151.18662 | 29 ft | 10 kts | 316° |
| 2026-05-04 09:43 | -33.95090 | 151.18584 | 29 ft | 11 kts | 269° |
| 2026-05-04 09:44 | -33.95103 | 151.18494 | 29 ft | 11 kts | 258° |
| 2026-05-04 09:44 | -33.95118 | 151.18408 | 29 ft | 10 kts | 257° |
| 2026-05-04 09:44 | -33.95134 | 151.18324 | 29 ft | 10 kts | 257° |
| 2026-05-04 09:46 | -33.95185 | 151.18039 | 29 ft | 11 kts | 263° |
| 2026-05-04 09:46 | -33.95146 | 151.17958 | 29 ft | 12 kts | 336° |
| 2026-05-04 09:46 | -33.95065 | 151.17934 | 29 ft | 12 kts | 348° |
| 2026-05-04 09:47 | -33.94979 | 151.17912 | 29 ft | 13 kts | 348° |
| 2026-05-04 09:47 | -33.94893 | 151.17890 | 29 ft | 13 kts | 347° |
| 2026-05-04 09:49 | -33.94689 | 151.17836 | 29 ft | 0 kts | 348° |
| 2026-05-04 09:51 | -33.94262 | 151.17714 | 29 ft | 14 kts | 346° |
| 2026-05-04 09:51 | -33.94173 | 151.17685 | 28 ft | 13 kts | 345° |
| 2026-05-04 09:51 | -33.94085 | 151.17660 | 27 ft | 13 kts | 347° |
| 2026-05-04 09:51 | -33.94020 | 151.17643 | 27 ft | 0 kts | 347° |
| 2026-05-04 09:52 | -33.94019 | 151.17643 | 27 ft | 0 kts | 347° |
| 2026-05-04 09:52 | -33.94012 | 151.17641 | 27 ft | 2 kts | 347° |
| 2026-05-04 09:52 | -33.93988 | 151.17634 | 28 ft | 6 kts | 347° |
| 2026-05-04 09:52 | -33.93939 | 151.17621 | 28 ft | 8 kts | 347° |
| 2026-05-04 09:53 | -33.93887 | 151.17628 | 28 ft | 8 kts | 34° |
| 2026-05-04 09:53 | -33.93860 | 151.17691 | 29 ft | 9 kts | 72° |
| 2026-05-04 09:53 | -33.93842 | 151.17763 | 29 ft | 9 kts | 73° |
| 2026-05-04 09:53 | -33.93826 | 151.17829 | 29 ft | 6 kts | 73° |
| 2026-05-04 09:54 | -33.93811 | 151.17878 | 29 ft | 7 kts | 77° |
| 2026-05-04 09:54 | -33.93795 | 151.17961 | 29 ft | 12 kts | 76° |
| 2026-05-04 09:54 | -33.93776 | 151.18039 | 29 ft | 6 kts | 67° |
| 2026-05-04 09:54 | -33.93740 | 151.18063 | 29 ft | 6 kts | 1° |
| 2026-05-04 09:55 | -33.93697 | 151.18055 | 29 ft | 6 kts | 351° |
| 2026-05-04 09:55 | -33.93659 | 151.18050 | 29 ft | 2 kts | 358° |
| 2026-05-04 09:55 | -33.93640 | 151.18051 | 29 ft | 4 kts | 2° |
| 2026-05-04 09:55 | -33.93615 | 151.18052 | 29 ft | 4 kts | 2° |
| 2026-05-04 09:56 | -33.93591 | 151.18055 | 29 ft | 3 kts | 7° |
| 2026-05-04 09:56 | -33.93574 | 151.18057 | 29 ft | 2 kts | 2° |
| 2026-05-04 09:56 | -33.93564 | 151.18047 | 29 ft | 2 kts | 298° |
| 2026-05-04 09:56 | -33.93562 | 151.18032 | 29 ft | 2 kts | 281° |
| 2026-05-04 09:57 | -33.93560 | 151.18017 | 29 ft | 2 kts | 281° |
| 2026-05-04 09:57 | -33.93558 | 151.18003 | 29 ft | 2 kts | 280° |
| 2026-05-04 09:57 | -33.93556 | 151.17992 | 29 ft | 1 kts | 280° |
| 2026-05-04 09:57 | -33.93556 | 151.17991 | 29 ft | 0 kts | 280° |